createdAt,value
2023-04-04T00:00:08.816Z,0.00
2023-04-04T00:01:08.803Z,0.00
2023-04-04T00:02:08.776Z,0.00
2023-04-04T00:03:08.853Z,0.00
2023-04-04T00:04:08.793Z,0.00
2023-04-04T00:05:08.796Z,0.00
2023-04-04T00:06:08.747Z,0.00
2023-04-04T00:07:08.810Z,0.00
2023-04-04T00:08:08.752Z,0.00
2023-04-04T00:09:08.740Z,0.00
2023-04-04T00:10:08.755Z,0.00
2023-04-04T00:11:08.719Z,0.00
2023-04-04T00:12:08.698Z,0.00
2023-04-04T00:13:08.714Z,0.00
2023-04-04T00:14:08.695Z,0.00
2023-04-04T00:15:08.701Z,0.00
2023-04-04T00:16:08.713Z,0.00
2023-04-04T00:17:08.681Z,0.00
2023-04-04T00:18:08.725Z,0.00
2023-04-04T00:19:08.708Z,0.00
2023-04-04T00:20:08.740Z,0.00
2023-04-04T00:21:08.665Z,0.00
2023-04-04T00:22:08.663Z,0.00
2023-04-04T00:23:08.643Z,0.00
2023-04-04T00:24:08.633Z,0.00
2023-04-04T00:25:08.698Z,0.00
2023-04-04T00:26:08.640Z,0.00
2023-04-04T00:27:08.646Z,0.00
2023-04-04T00:28:08.632Z,0.00
2023-04-04T00:29:08.687Z,0.00
2023-04-04T00:30:08.637Z,0.00
2023-04-04T00:31:08.665Z,0.00
2023-04-04T00:32:08.649Z,0.00
2023-04-04T00:33:08.691Z,0.00
2023-04-04T00:34:09.473Z,0.00
2023-04-04T00:35:08.607Z,0.00
2023-04-04T00:36:08.609Z,0.00
2023-04-04T00:37:08.541Z,0.00
2023-04-04T00:38:08.538Z,0.00
2023-04-04T00:39:08.520Z,0.00
2023-04-04T00:40:08.531Z,0.00
2023-04-04T00:41:08.553Z,0.00
2023-04-04T00:42:08.522Z,0.00
2023-04-04T00:43:08.535Z,0.00
2023-04-04T00:44:08.539Z,0.00
2023-04-04T00:45:08.531Z,0.00
2023-04-04T00:46:08.608Z,0.00
2023-04-04T00:47:08.536Z,0.00
2023-04-04T00:48:08.561Z,0.00
2023-04-04T00:49:08.487Z,0.00
2023-04-04T00:50:08.502Z,0.00
2023-04-04T00:51:08.541Z,0.00
2023-04-04T00:52:08.458Z,0.00
2023-04-04T00:53:08.538Z,0.00
2023-04-04T00:54:08.460Z,0.00
2023-04-04T00:55:08.465Z,0.00
2023-04-04T00:56:08.486Z,0.00
2023-04-04T00:57:08.470Z,0.00
2023-04-04T00:58:08.438Z,0.00
2023-04-04T00:59:08.527Z,0.00
2023-04-04T01:00:08.435Z,0.00
2023-04-04T01:01:08.488Z,0.00
2023-04-04T01:02:08.415Z,0.00
2023-04-04T01:03:08.454Z,0.00
2023-04-04T01:04:08.434Z,0.00
2023-04-04T01:05:08.374Z,0.00
2023-04-04T01:06:08.371Z,0.00
2023-04-04T01:07:08.351Z,0.00
2023-04-04T01:08:08.342Z,0.00
2023-04-04T01:09:08.376Z,0.00
2023-04-04T01:10:08.386Z,0.00
2023-04-04T01:11:08.400Z,0.00
2023-04-04T01:12:08.365Z,0.00
2023-04-04T01:13:08.312Z,0.00
2023-04-04T01:14:09.345Z,0.00
2023-04-04T01:15:08.323Z,0.00
2023-04-04T01:16:08.370Z,0.00
2023-04-04T01:17:08.302Z,0.00
2023-04-04T01:18:08.309Z,0.00
2023-04-04T01:19:08.281Z,0.00
2023-04-04T01:20:08.305Z,0.00
2023-04-04T01:21:08.308Z,0.00
2023-04-04T01:22:08.249Z,0.00
2023-04-04T01:23:08.267Z,0.00
2023-04-04T01:24:08.257Z,0.00
2023-04-04T01:25:08.279Z,0.00
2023-04-04T01:26:08.252Z,0.00
2023-04-04T01:27:08.242Z,0.00
2023-04-04T01:28:09.376Z,0.00
2023-04-04T01:29:08.213Z,0.00
2023-04-04T01:30:08.207Z,0.00
2023-04-04T01:31:08.246Z,0.00
2023-04-04T01:32:08.197Z,0.00
2023-04-04T01:33:08.271Z,0.00
2023-04-04T01:34:08.210Z,0.00
2023-04-04T01:35:08.206Z,0.00
2023-04-04T01:36:08.210Z,0.00
2023-04-04T01:37:08.161Z,0.00
2023-04-04T01:38:09.493Z,0.00
2023-04-04T01:39:08.157Z,0.00
2023-04-04T01:40:08.183Z,0.00
2023-04-04T01:41:08.180Z,0.00
2023-04-04T01:42:08.137Z,0.00
2023-04-04T01:43:08.145Z,0.00
2023-04-04T01:44:08.155Z,0.00
2023-04-04T01:45:08.107Z,0.00
2023-04-04T01:46:09.197Z,0.00
2023-04-04T01:47:08.097Z,0.00
2023-04-04T01:48:08.125Z,0.00
2023-04-04T01:49:08.979Z,0.00
2023-04-04T01:50:08.101Z,0.00
2023-04-04T01:51:08.148Z,0.00
2023-04-04T01:52:08.091Z,0.00
2023-04-04T01:53:08.061Z,0.00
2023-04-04T01:54:08.082Z,0.00
2023-04-04T01:55:08.051Z,0.00
2023-04-04T01:56:08.105Z,0.00
2023-04-04T01:57:08.050Z,0.00
2023-04-04T01:58:08.044Z,0.00
2023-04-04T01:59:08.055Z,0.00
2023-04-04T02:00:08.020Z,0.00
2023-04-04T02:01:08.087Z,0.00
2023-04-04T02:02:07.991Z,0.00
2023-04-04T02:03:08.007Z,0.00
2023-04-04T02:04:07.996Z,0.00
2023-04-04T02:05:07.979Z,0.00
2023-04-04T02:06:07.991Z,0.00
2023-04-04T02:07:07.961Z,0.00
2023-04-04T02:08:07.953Z,0.00
2023-04-04T02:09:07.960Z,0.00
2023-04-04T02:10:07.945Z,0.00
2023-04-04T02:11:07.962Z,0.00
2023-04-04T02:12:07.934Z,0.00
2023-04-04T02:13:07.953Z,0.00
2023-04-04T02:14:07.937Z,0.00
2023-04-04T02:15:07.921Z,0.00
2023-04-04T02:16:07.936Z,0.00
2023-04-04T02:17:07.934Z,0.00
2023-04-04T02:18:07.953Z,0.00
2023-04-04T02:19:07.876Z,0.00
2023-04-04T02:20:07.894Z,0.00
2023-04-04T02:21:08.068Z,0.00
2023-04-04T02:22:07.869Z,0.00
2023-04-04T02:23:07.845Z,0.00
2023-04-04T02:24:07.854Z,0.00
2023-04-04T02:25:07.854Z,0.00
2023-04-04T02:26:08.120Z,0.00
2023-04-04T02:27:07.869Z,0.00
2023-04-04T02:28:07.824Z,0.00
2023-04-04T02:29:07.812Z,0.00
2023-04-04T02:30:07.797Z,0.00
2023-04-04T02:31:08.221Z,0.00
2023-04-04T02:32:07.775Z,0.00
2023-04-04T02:33:08.006Z,0.00
2023-04-04T02:34:07.785Z,0.00
2023-04-04T02:35:07.791Z,0.00
2023-04-04T02:36:07.852Z,0.00
2023-04-04T02:37:07.764Z,0.00
2023-04-04T02:38:07.817Z,0.00
2023-04-04T02:39:07.737Z,0.00
2023-04-04T02:40:07.768Z,0.00
2023-04-04T02:41:07.750Z,0.00
2023-04-04T02:42:07.814Z,0.00
2023-04-04T02:43:07.718Z,0.00
2023-04-04T02:44:07.706Z,0.00
2023-04-04T02:45:07.717Z,0.00
2023-04-04T02:46:20.633Z,0.00
2023-04-04T02:47:09.746Z,0.00
2023-04-04T02:48:07.799Z,0.00
2023-04-04T02:49:07.685Z,0.00
2023-04-04T02:50:07.704Z,0.00
2023-04-04T02:51:07.770Z,0.00
2023-04-04T02:52:07.653Z,0.00
2023-04-04T02:53:07.666Z,0.00
2023-04-04T02:54:07.667Z,0.00
2023-04-04T02:55:07.713Z,0.00
2023-04-04T02:56:07.681Z,0.00
2023-04-04T02:57:07.661Z,0.00
2023-04-04T02:58:07.637Z,0.00
2023-04-04T02:59:07.666Z,0.00
2023-04-04T03:00:07.647Z,0.00
2023-04-04T03:01:07.686Z,0.00
2023-04-04T03:02:07.655Z,0.00
2023-04-04T03:03:07.910Z,0.00
2023-04-04T03:04:07.720Z,0.00
2023-04-04T03:05:07.586Z,0.00
2023-04-04T03:06:07.603Z,0.00
2023-04-04T03:07:07.622Z,0.00
2023-04-04T03:08:07.561Z,0.00
2023-04-04T03:09:07.597Z,0.00
2023-04-04T03:10:07.572Z,0.00
2023-04-04T03:11:07.593Z,0.00
2023-04-04T03:12:07.552Z,0.00
2023-04-04T03:13:07.577Z,0.00
2023-04-04T03:14:08.347Z,0.00
2023-04-04T03:15:07.510Z,0.00
2023-04-04T03:16:07.610Z,0.00
2023-04-04T03:17:07.538Z,0.00
2023-04-04T03:18:07.627Z,0.00
2023-04-04T03:19:07.509Z,0.00
2023-04-04T03:20:07.501Z,0.00
2023-04-04T03:21:07.533Z,0.00
2023-04-04T03:22:07.483Z,0.00
2023-04-04T03:23:07.492Z,0.00
2023-04-04T03:24:07.474Z,0.00
2023-04-04T03:25:07.480Z,0.00
2023-04-04T03:26:07.484Z,0.00
2023-04-04T03:27:07.481Z,0.00
2023-04-04T03:28:07.446Z,0.00
2023-04-04T03:29:07.447Z,0.00
2023-04-04T03:30:07.457Z,0.00
2023-04-04T03:31:07.442Z,0.00
2023-04-04T03:32:07.581Z,0.00
2023-04-04T03:33:07.421Z,0.00
2023-04-04T03:34:07.404Z,0.00
2023-04-04T03:35:07.394Z,0.00
2023-04-04T03:36:07.463Z,0.00
2023-04-04T03:37:07.420Z,0.00
2023-04-04T03:38:07.389Z,0.00
2023-04-04T03:39:07.371Z,0.00
2023-04-04T03:40:07.354Z,0.00
2023-04-04T03:41:07.397Z,0.00
2023-04-04T03:42:07.386Z,0.00
2023-04-04T03:43:07.359Z,0.00
2023-04-04T03:44:07.387Z,0.00
2023-04-04T03:45:07.379Z,0.00
2023-04-04T03:46:07.380Z,0.00
2023-04-04T03:47:07.390Z,0.00
2023-04-04T03:48:07.337Z,0.00
2023-04-04T03:49:07.325Z,0.00
2023-04-04T03:50:07.328Z,0.00
2023-04-04T03:51:07.318Z,0.00
2023-04-04T03:52:07.317Z,0.00
2023-04-04T03:53:07.334Z,0.00
2023-04-04T03:54:07.274Z,0.00
2023-04-04T03:55:07.281Z,0.00
2023-04-04T03:56:07.282Z,0.00
2023-04-04T03:57:07.296Z,0.00
2023-04-04T03:58:07.278Z,0.00
2023-04-04T03:59:07.298Z,0.00
2023-04-04T04:00:07.287Z,0.00
2023-04-04T04:01:07.242Z,0.00
2023-04-04T04:02:07.299Z,0.00
2023-04-04T04:03:08.250Z,0.00
2023-04-04T04:04:07.275Z,0.00
2023-04-04T04:05:07.264Z,0.00
2023-04-04T04:06:07.201Z,0.00
2023-04-04T04:07:07.235Z,0.00
2023-04-04T04:08:07.196Z,0.00
2023-04-04T04:09:07.161Z,0.00
2023-04-04T04:10:07.176Z,0.00
2023-04-04T04:11:07.160Z,0.00
2023-04-04T04:12:07.181Z,0.00
2023-04-04T04:13:07.155Z,0.00
2023-04-04T04:14:07.140Z,0.00
2023-04-04T04:15:07.130Z,0.00
2023-04-04T04:16:07.146Z,0.00
2023-04-04T04:17:07.139Z,0.00
2023-04-04T04:18:07.137Z,0.00
2023-04-04T04:19:07.165Z,0.00
2023-04-04T04:20:07.098Z,0.00
2023-04-04T04:21:07.093Z,0.00
2023-04-04T04:22:07.070Z,0.00
2023-04-04T04:23:07.053Z,0.00
2023-04-04T04:24:07.053Z,0.00
2023-04-04T04:25:07.048Z,0.00
2023-04-04T04:26:07.038Z,0.00
2023-04-04T04:27:07.056Z,0.00
2023-04-04T04:28:07.023Z,0.00
2023-04-04T04:29:07.042Z,0.00
2023-04-04T04:30:07.009Z,0.00
2023-04-04T04:31:07.053Z,0.00
2023-04-04T04:32:07.015Z,0.00
2023-04-04T04:33:07.145Z,0.00
2023-04-04T04:34:07.042Z,0.00
2023-04-04T04:35:06.991Z,0.00
2023-04-04T04:36:07.209Z,0.00
2023-04-04T04:37:06.999Z,0.00
2023-04-04T04:38:06.955Z,0.00
2023-04-04T04:39:06.961Z,0.00
2023-04-04T04:40:06.967Z,0.00
2023-04-04T04:41:06.942Z,0.00
2023-04-04T04:42:06.957Z,0.00
2023-04-04T04:43:06.933Z,0.00
2023-04-04T04:44:06.929Z,0.00
2023-04-04T04:45:06.920Z,0.00
2023-04-04T04:46:06.923Z,0.00
2023-04-04T04:47:06.945Z,0.00
2023-04-04T04:48:06.915Z,0.00
2023-04-04T04:49:06.909Z,0.00
2023-04-04T04:50:06.879Z,0.00
2023-04-04T04:51:06.869Z,5.62
2023-04-04T04:52:06.900Z,5.62
2023-04-04T04:53:06.886Z,5.62
2023-04-04T04:54:06.869Z,5.62
2023-04-04T04:55:06.863Z,5.62
2023-04-04T04:56:06.843Z,5.62
2023-04-04T04:57:06.857Z,5.62
2023-04-04T04:58:06.866Z,11.25
2023-04-04T04:59:06.879Z,11.25
2023-04-04T05:00:06.833Z,11.25
2023-04-04T05:01:06.835Z,11.25
2023-04-04T05:02:06.848Z,16.88
2023-04-04T05:03:06.859Z,16.88
2023-04-04T05:04:06.792Z,16.88
2023-04-04T05:05:06.801Z,16.88
2023-04-04T05:06:06.775Z,22.50
2023-04-04T05:07:06.812Z,22.50
2023-04-04T05:08:06.774Z,22.50
2023-04-04T05:09:06.756Z,28.12
2023-04-04T05:10:06.733Z,28.12
2023-04-04T05:11:06.730Z,28.12
2023-04-04T05:12:06.757Z,33.75
2023-04-04T05:13:06.719Z,33.75
2023-04-04T05:14:06.713Z,33.75
2023-04-04T05:15:06.721Z,33.75
2023-04-04T05:16:06.725Z,39.38
2023-04-04T05:17:06.715Z,39.38
2023-04-04T05:18:06.789Z,39.38
2023-04-04T05:19:06.688Z,39.38
2023-04-04T05:20:06.690Z,39.38
2023-04-04T05:21:06.673Z,45.00
2023-04-04T05:22:06.654Z,45.00
2023-04-04T05:23:06.670Z,45.00
2023-04-04T05:24:06.647Z,45.00
2023-04-04T05:25:06.645Z,45.00
2023-04-04T05:26:06.649Z,45.00
2023-04-04T05:27:06.643Z,45.00
2023-04-04T05:28:06.618Z,45.00
2023-04-04T05:29:06.648Z,50.62
2023-04-04T05:30:06.608Z,50.62
2023-04-04T05:31:06.603Z,50.62
2023-04-04T05:32:06.678Z,50.62
2023-04-04T05:33:06.644Z,50.62
2023-04-04T05:34:06.607Z,50.62
2023-04-04T05:35:06.627Z,56.25
2023-04-04T05:36:06.590Z,56.25
2023-04-04T05:37:06.595Z,56.25
2023-04-04T05:38:06.551Z,56.25
2023-04-04T05:39:06.556Z,56.25
2023-04-04T05:40:06.551Z,61.88
2023-04-04T05:41:06.531Z,61.88
2023-04-04T05:42:06.627Z,61.88
2023-04-04T05:43:06.526Z,67.50
2023-04-04T05:44:06.523Z,67.50
2023-04-04T05:45:06.521Z,67.50
2023-04-04T05:46:06.555Z,67.50
2023-04-04T05:47:06.583Z,73.12
2023-04-04T05:48:06.610Z,73.12
2023-04-04T05:49:06.494Z,73.12
2023-04-04T05:50:06.517Z,73.12
2023-04-04T05:51:06.476Z,73.12
2023-04-04T05:52:06.485Z,73.12
2023-04-04T05:53:06.520Z,73.12
2023-04-04T05:54:06.471Z,73.12
2023-04-04T05:55:06.458Z,78.75
2023-04-04T05:56:06.451Z,78.75
2023-04-04T05:57:06.457Z,78.75
2023-04-04T05:58:06.458Z,84.38
2023-04-04T05:59:06.462Z,90.00
2023-04-04T06:00:06.407Z,95.62
2023-04-04T06:01:06.431Z,90.00
2023-04-04T06:02:06.401Z,95.62
2023-04-04T06:03:06.478Z,95.62
2023-04-04T06:04:06.394Z,101.25
2023-04-04T06:05:06.393Z,101.25
2023-04-04T06:06:06.417Z,101.25
2023-04-04T06:07:06.362Z,101.25
2023-04-04T06:08:06.431Z,106.88
2023-04-04T06:09:08.622Z,106.88
2023-04-04T06:10:07.392Z,106.88
2023-04-04T06:11:06.338Z,106.88
2023-04-04T06:12:06.353Z,106.88
2023-04-04T06:13:06.331Z,106.88
2023-04-04T06:14:06.334Z,112.50
2023-04-04T06:15:06.339Z,106.88
2023-04-04T06:16:06.336Z,101.25
2023-04-04T06:17:06.324Z,95.62
2023-04-04T06:18:06.329Z,95.62
2023-04-04T06:19:06.293Z,95.62
2023-04-04T06:20:06.277Z,95.62
2023-04-04T06:21:06.272Z,95.62
2023-04-04T06:22:06.280Z,95.62
2023-04-04T06:23:06.279Z,95.62
2023-04-04T06:24:06.257Z,95.62
2023-04-04T06:25:06.239Z,95.62
2023-04-04T06:26:06.249Z,95.62
2023-04-04T06:27:06.229Z,101.25
2023-04-04T06:28:06.250Z,101.25
2023-04-04T06:29:06.212Z,101.25
2023-04-04T06:30:06.208Z,101.25
2023-04-04T06:31:06.240Z,101.25
2023-04-04T06:32:06.231Z,101.25
2023-04-04T06:33:06.291Z,101.25
2023-04-04T06:34:06.198Z,106.88
2023-04-04T06:35:06.253Z,106.88
2023-04-04T06:36:06.196Z,106.88
2023-04-04T06:37:06.197Z,112.50
2023-04-04T06:38:06.196Z,112.50
2023-04-04T06:39:06.161Z,112.50
2023-04-04T06:40:06.156Z,118.12
2023-04-04T06:41:06.163Z,118.12
2023-04-04T06:42:06.180Z,123.75
2023-04-04T06:43:06.130Z,123.75
2023-04-04T06:44:06.123Z,129.38
2023-04-04T06:45:07.113Z,129.38
2023-04-04T06:46:06.199Z,129.38
2023-04-04T06:47:06.219Z,135.00
2023-04-04T06:48:06.124Z,135.00
2023-04-04T06:49:06.102Z,135.00
2023-04-04T06:50:06.091Z,135.00
2023-04-04T06:51:06.075Z,135.00
2023-04-04T06:52:06.083Z,135.00
2023-04-04T06:53:06.071Z,140.62
2023-04-04T06:54:06.062Z,140.62
2023-04-04T06:55:06.059Z,140.62
2023-04-04T06:56:06.040Z,135.00
2023-04-04T06:57:06.060Z,140.62
2023-04-04T06:58:06.043Z,135.00
2023-04-04T06:59:06.096Z,140.62
2023-04-04T07:00:06.036Z,140.62
2023-04-04T07:01:06.080Z,140.62
2023-04-04T07:02:06.063Z,135.00
2023-04-04T07:03:06.035Z,135.00
2023-04-04T07:04:05.992Z,135.00
2023-04-04T07:05:06.068Z,135.00
2023-04-04T07:06:06.017Z,135.00
2023-04-04T07:07:06.008Z,135.00
2023-04-04T07:08:06.045Z,135.00
2023-04-04T07:09:08.925Z,135.00
2023-04-04T07:10:06.978Z,135.00
2023-04-04T07:11:05.975Z,135.00
2023-04-04T07:12:05.991Z,135.00
2023-04-04T07:13:06.674Z,135.00
2023-04-04T07:14:05.940Z,135.00
2023-04-04T07:15:05.941Z,135.00
2023-04-04T07:16:05.957Z,135.00
2023-04-04T07:17:17.175Z,135.00
2023-04-04T07:18:08.007Z,135.00
2023-04-04T07:19:05.912Z,135.00
2023-04-04T07:20:05.948Z,135.00
2023-04-04T07:21:05.910Z,135.00
2023-04-04T07:22:05.921Z,135.00
2023-04-04T07:23:05.983Z,135.00
2023-04-04T07:24:05.888Z,135.00
2023-04-04T07:25:05.902Z,140.62
2023-04-04T07:26:05.867Z,140.62
2023-04-04T07:27:05.862Z,146.25
2023-04-04T07:28:12.828Z,146.25
2023-04-04T07:29:07.910Z,146.25
2023-04-04T07:30:05.851Z,151.88
2023-04-04T07:31:05.849Z,151.88
2023-04-04T07:32:05.876Z,151.88
2023-04-04T07:33:05.906Z,157.50
2023-04-04T07:34:05.855Z,157.50
2023-04-04T07:35:05.816Z,163.12
2023-04-04T07:36:05.858Z,157.50
2023-04-04T07:37:05.821Z,163.12
2023-04-04T07:38:05.795Z,163.12
2023-04-04T07:39:05.891Z,163.12
2023-04-04T07:40:05.776Z,163.12
2023-04-04T07:41:05.786Z,163.12
2023-04-04T07:42:05.849Z,163.12
2023-04-04T07:43:05.757Z,163.12
2023-04-04T07:44:05.782Z,163.12
2023-04-04T07:45:05.757Z,163.12
2023-04-04T07:46:05.788Z,163.12
2023-04-04T07:47:10.048Z,163.12
2023-04-04T07:48:06.737Z,163.12
2023-04-04T07:49:05.755Z,163.12
2023-04-04T07:50:05.713Z,163.12
2023-04-04T07:51:05.701Z,163.12
2023-04-04T07:52:05.703Z,163.12
2023-04-04T07:53:05.695Z,163.12
2023-04-04T07:54:05.704Z,163.12
2023-04-04T07:55:05.688Z,168.75
2023-04-04T07:56:05.677Z,163.12
2023-04-04T07:57:05.661Z,163.12
2023-04-04T07:58:05.676Z,163.12
2023-04-04T07:59:05.707Z,163.12
2023-04-04T08:00:06.633Z,163.12
2023-04-04T08:01:05.636Z,163.12
2023-04-04T08:02:05.640Z,163.12
2023-04-04T08:03:05.691Z,163.12
2023-04-04T08:04:05.744Z,163.12
2023-04-04T08:05:05.601Z,163.12
2023-04-04T08:06:05.588Z,163.12
2023-04-04T08:07:05.598Z,163.12
2023-04-04T08:08:05.608Z,163.12
2023-04-04T08:09:05.586Z,163.12
2023-04-04T08:10:05.557Z,163.12
2023-04-04T08:11:05.550Z,163.12
2023-04-04T08:12:05.535Z,163.12
2023-04-04T08:13:05.649Z,163.12
2023-04-04T08:14:05.566Z,163.12
2023-04-04T08:15:05.558Z,163.12
2023-04-04T08:16:05.558Z,163.12
2023-04-04T08:17:05.534Z,163.12
2023-04-04T08:18:05.592Z,163.12
2023-04-04T08:19:05.511Z,163.12
2023-04-04T08:20:05.531Z,163.12
2023-04-04T08:21:05.481Z,163.12
2023-04-04T08:22:05.489Z,163.12
2023-04-04T08:23:05.544Z,163.12
2023-04-04T08:24:05.478Z,163.12
2023-04-04T08:25:05.466Z,163.12
2023-04-04T08:26:05.471Z,163.12
2023-04-04T08:27:06.050Z,163.12
2023-04-04T08:28:05.728Z,163.12
2023-04-04T08:29:05.427Z,163.12
2023-04-04T08:30:06.457Z,168.75
2023-04-04T08:31:06.489Z,168.75
2023-04-04T08:32:05.490Z,168.75
2023-04-04T08:33:06.414Z,168.75
2023-04-04T08:34:06.401Z,168.75
2023-04-04T08:35:05.383Z,174.38
2023-04-04T08:36:05.483Z,174.38
2023-04-04T08:37:05.358Z,174.38
2023-04-04T08:38:05.363Z,174.38
2023-04-04T08:39:05.348Z,180.00
2023-04-04T08:40:05.363Z,180.00
2023-04-04T08:41:05.340Z,180.00
2023-04-04T08:42:05.367Z,185.62
2023-04-04T08:43:05.389Z,185.62
2023-04-04T08:44:05.328Z,185.62
2023-04-04T08:45:05.338Z,185.62
2023-04-04T08:46:05.308Z,185.62
2023-04-04T08:47:05.521Z,196.88
2023-04-04T08:48:05.353Z,191.25
2023-04-04T08:49:05.283Z,191.25
2023-04-04T08:50:05.288Z,196.88
2023-04-04T08:51:05.266Z,196.88
2023-04-04T08:52:06.306Z,196.88
2023-04-04T08:53:05.261Z,196.88
2023-04-04T08:54:05.246Z,202.50
2023-04-04T08:55:05.222Z,202.50
2023-04-04T08:56:05.222Z,208.12
2023-04-04T08:57:05.221Z,208.12
2023-04-04T08:58:05.221Z,208.12
2023-04-04T08:59:05.272Z,213.75
2023-04-04T09:00:05.395Z,208.12
2023-04-04T09:01:05.219Z,208.12
2023-04-04T09:02:05.212Z,213.75
2023-04-04T09:03:05.279Z,202.50
2023-04-04T09:04:05.174Z,213.75
2023-04-04T09:05:07.241Z,213.75
2023-04-04T09:06:06.175Z,213.75
2023-04-04T09:07:05.209Z,213.75
2023-04-04T09:08:05.196Z,213.75
2023-04-04T09:09:05.184Z,213.75
2023-04-04T09:10:05.140Z,219.38
2023-04-04T09:11:05.134Z,219.38
2023-04-04T09:12:05.115Z,219.38
2023-04-04T09:13:14.717Z,225.00
2023-04-04T09:14:07.121Z,225.00
2023-04-04T09:15:05.094Z,225.00
2023-04-04T09:16:05.124Z,230.62
2023-04-04T09:17:05.094Z,230.62
2023-04-04T09:18:05.121Z,230.62
2023-04-04T09:19:05.073Z,219.38
2023-04-04T09:20:05.098Z,202.50
2023-04-04T09:21:05.058Z,202.50
2023-04-04T09:22:05.052Z,241.88
2023-04-04T09:23:05.211Z,247.50
2023-04-04T09:24:05.027Z,225.00
2023-04-04T09:25:05.020Z,241.88
2023-04-04T09:26:05.044Z,208.12
2023-04-04T09:27:05.025Z,163.12
2023-04-04T09:28:05.013Z,180.00
2023-04-04T09:29:05.026Z,163.12
2023-04-04T09:30:05.777Z,151.88
2023-04-04T09:31:05.087Z,151.88
2023-04-04T09:32:05.038Z,146.25
2023-04-04T09:33:05.002Z,146.25
2023-04-04T09:34:04.959Z,140.62
2023-04-04T09:35:04.956Z,146.25
2023-04-04T09:36:05.014Z,168.75
2023-04-04T09:37:04.936Z,258.75
2023-04-04T09:38:04.967Z,264.38
2023-04-04T09:39:04.909Z,264.38
2023-04-04T09:40:05.152Z,264.38
2023-04-04T09:41:04.923Z,264.38
2023-04-04T09:42:04.903Z,264.38
2023-04-04T09:43:04.917Z,270.00
2023-04-04T09:44:04.901Z,270.00
2023-04-04T09:45:04.897Z,270.00
2023-04-04T09:46:04.900Z,275.62
2023-04-04T09:47:04.861Z,275.62
2023-04-04T09:48:04.895Z,281.25
2023-04-04T09:49:04.888Z,286.88
2023-04-04T09:50:04.858Z,286.88
2023-04-04T09:51:04.831Z,281.25
2023-04-04T09:52:04.849Z,275.62
2023-04-04T09:53:04.865Z,270.00
2023-04-04T09:54:05.549Z,264.38
2023-04-04T09:55:04.846Z,258.75
2023-04-04T09:56:04.862Z,258.75
2023-04-04T09:57:04.801Z,253.12
2023-04-04T09:58:04.774Z,253.12
2023-04-04T09:59:05.484Z,247.50
2023-04-04T10:00:05.780Z,247.50
2023-04-04T10:01:04.783Z,253.12
2023-04-04T10:02:04.770Z,253.12
2023-04-04T10:03:04.830Z,225.00
2023-04-04T10:04:04.773Z,253.12
2023-04-04T10:05:06.557Z,253.12
2023-04-04T10:06:07.410Z,258.75
2023-04-04T10:07:05.714Z,264.38
2023-04-04T10:08:04.720Z,258.75
2023-04-04T10:09:04.724Z,258.75
2023-04-04T10:10:04.712Z,264.38
2023-04-04T10:11:10.390Z,270.00
2023-04-04T10:12:06.692Z,270.00
2023-04-04T10:13:04.678Z,270.00
2023-04-04T10:14:04.685Z,264.38
2023-04-04T10:15:04.679Z,264.38
2023-04-04T10:16:04.788Z,264.38
2023-04-04T10:17:04.653Z,264.38
2023-04-04T10:18:04.655Z,264.38
2023-04-04T10:19:04.659Z,264.38
2023-04-04T10:20:04.636Z,258.75
2023-04-04T10:21:14.171Z,253.12
2023-04-04T10:22:06.649Z,213.75
2023-04-04T10:23:04.602Z,253.12
2023-04-04T10:24:04.641Z,253.12
2023-04-04T10:25:04.596Z,253.12
2023-04-04T10:26:05.571Z,253.12
2023-04-04T10:27:04.609Z,247.50
2023-04-04T10:28:04.573Z,253.12
2023-04-04T10:29:04.584Z,253.12
2023-04-04T10:30:04.552Z,258.75
2023-04-04T10:31:07.019Z,258.75
2023-04-04T10:32:05.737Z,236.25
2023-04-04T10:33:04.612Z,241.88
2023-04-04T10:34:04.559Z,151.88
2023-04-04T10:35:04.510Z,163.12
2023-04-04T10:36:04.550Z,151.88
2023-04-04T10:37:04.520Z,140.62
2023-04-04T10:38:04.506Z,146.25
2023-04-04T10:39:04.508Z,157.50
2023-04-04T10:40:04.520Z,219.38
2023-04-04T10:41:04.493Z,270.00
2023-04-04T10:42:04.485Z,270.00
2023-04-04T10:43:04.479Z,163.12
2023-04-04T10:44:04.462Z,157.50
2023-04-04T10:45:19.416Z,157.50
2023-04-04T10:46:06.458Z,174.38
2023-04-04T10:47:04.451Z,157.50
2023-04-04T10:48:04.497Z,163.12
2023-04-04T10:49:04.460Z,191.25
2023-04-04T10:50:04.440Z,185.62
2023-04-04T10:51:04.447Z,286.88
2023-04-04T10:52:04.450Z,281.25
2023-04-04T10:53:04.397Z,275.62
2023-04-04T10:54:04.412Z,275.62
2023-04-04T10:55:04.389Z,281.25
2023-04-04T10:56:04.371Z,275.62
2023-04-04T10:57:04.370Z,281.25
2023-04-04T10:58:04.460Z,264.38
2023-04-04T10:59:04.434Z,286.88
2023-04-04T11:00:04.356Z,264.38
2023-04-04T11:01:04.359Z,213.75
2023-04-04T11:02:04.337Z,230.62
2023-04-04T11:03:04.343Z,241.88
2023-04-04T11:04:04.357Z,202.50
2023-04-04T11:05:04.315Z,180.00
2023-04-04T11:06:04.316Z,163.12
2023-04-04T11:07:04.324Z,258.75
2023-04-04T11:08:08.746Z,258.75
2023-04-04T11:09:06.311Z,258.75
2023-04-04T11:10:04.278Z,258.75
2023-04-04T11:11:09.696Z,264.38
2023-04-04T11:12:06.264Z,247.50
2023-04-04T11:13:12.247Z,264.38
2023-04-04T11:14:06.264Z,258.75
2023-04-04T11:15:04.262Z,258.75
2023-04-04T11:16:04.284Z,253.12
2023-04-04T11:17:04.228Z,157.50
2023-04-04T11:18:13.617Z,191.25
2023-04-04T11:19:06.227Z,253.12
2023-04-04T11:20:04.192Z,258.75
2023-04-04T11:21:04.191Z,247.50
2023-04-04T11:22:04.193Z,191.25
2023-04-04T11:23:04.241Z,258.75
2023-04-04T11:24:04.201Z,258.75
2023-04-04T11:25:04.173Z,247.50
2023-04-04T11:26:04.191Z,163.12
2023-04-04T11:27:04.160Z,151.88
2023-04-04T11:28:04.313Z,264.38
2023-04-04T11:29:04.364Z,196.88
2023-04-04T11:30:05.367Z,241.88
2023-04-04T11:31:04.118Z,247.50
2023-04-04T11:32:04.167Z,258.75
2023-04-04T11:33:07.753Z,253.12
2023-04-04T11:34:05.137Z,258.75
2023-04-04T11:35:04.094Z,258.75
2023-04-04T11:36:06.096Z,258.75
2023-04-04T11:37:04.073Z,253.12
2023-04-04T11:38:04.450Z,253.12
2023-04-04T11:39:04.103Z,253.12
2023-04-04T11:40:04.046Z,241.88
2023-04-04T11:41:04.103Z,247.50
2023-04-04T11:42:05.046Z,247.50
2023-04-04T11:43:04.032Z,247.50
2023-04-04T11:44:04.028Z,247.50
2023-04-04T11:45:04.034Z,253.12
2023-04-04T11:46:04.031Z,253.12
2023-04-04T11:47:04.018Z,253.12
2023-04-04T11:48:04.038Z,258.75
2023-04-04T11:49:04.085Z,258.75
2023-04-04T11:50:03.973Z,264.38
2023-04-04T11:51:03.982Z,264.38
2023-04-04T11:52:03.963Z,264.38
2023-04-04T11:53:03.961Z,264.38
2023-04-04T11:54:03.966Z,168.75
2023-04-04T11:55:03.952Z,185.62
2023-04-04T11:56:03.951Z,146.25
2023-04-04T11:57:03.937Z,146.25
2023-04-04T11:58:03.929Z,202.50
2023-04-04T11:59:11.092Z,202.50
2023-04-04T12:00:05.932Z,208.12
2023-04-04T12:01:03.902Z,163.12
2023-04-04T12:02:03.896Z,258.75
2023-04-04T12:03:03.956Z,258.75
2023-04-04T12:04:03.931Z,258.75
2023-04-04T12:05:03.930Z,258.75
2023-04-04T12:06:03.895Z,258.75
2023-04-04T12:07:03.898Z,258.75
2023-04-04T12:08:03.869Z,258.75
2023-04-04T12:09:03.912Z,258.75
2023-04-04T12:10:03.843Z,258.75
2023-04-04T12:11:03.863Z,258.75
2023-04-04T12:12:03.848Z,258.75
2023-04-04T12:13:03.822Z,258.75
2023-04-04T12:14:03.867Z,258.75
2023-04-04T12:15:16.648Z,253.12
2023-04-04T12:16:05.826Z,253.12
2023-04-04T12:17:03.822Z,253.12
2023-04-04T12:18:03.817Z,253.12
2023-04-04T12:19:03.802Z,253.12
2023-04-04T12:20:03.782Z,253.12
2023-04-04T12:21:03.770Z,247.50
2023-04-04T12:22:05.258Z,247.50
2023-04-04T12:23:03.762Z,247.50
2023-04-04T12:24:03.763Z,236.25
2023-04-04T12:25:03.774Z,241.88
2023-04-04T12:26:03.738Z,241.88
2023-04-04T12:27:03.752Z,236.25
2023-04-04T12:28:03.811Z,236.25
2023-04-04T12:29:03.732Z,236.25
2023-04-04T12:30:04.594Z,236.25
2023-04-04T12:31:03.768Z,236.25
2023-04-04T12:32:03.698Z,236.25
2023-04-04T12:33:03.738Z,236.25
2023-04-04T12:34:03.708Z,241.88
2023-04-04T12:35:03.693Z,241.88
2023-04-04T12:36:03.705Z,241.88
2023-04-04T12:37:03.680Z,241.88
2023-04-04T12:38:03.650Z,241.88
2023-04-04T12:39:03.674Z,241.88
2023-04-04T12:40:03.648Z,241.88
2023-04-04T12:41:03.627Z,241.88
2023-04-04T12:42:03.642Z,241.88
2023-04-04T12:43:03.684Z,241.88
2023-04-04T12:44:03.617Z,241.88
2023-04-04T12:45:03.597Z,241.88
2023-04-04T12:46:03.608Z,241.88
2023-04-04T12:47:03.619Z,241.88
2023-04-04T12:48:03.664Z,247.50
2023-04-04T12:49:03.583Z,253.12